Time;durP1;ratioP1;P1;durP2;ratioP2;P2;SDS_P1;SDS_P2;PMS_P1;PMS_P2;Temp;Humidity;BMP_temperature;BMP_pressure;BME280_temperature;BME280_humidity;BME280_pressure;Samples;Min_cycle;Max_cycle;Signal;HPM_P1;HPM_P2
2023/06/10 00:01:30;;;;;;;7.82;5.35;;;14.80;99.90;;;;;;5155045;27;20023;-73
2023/06/10 00:03:57;;;;;;;7.57;4.95;;;14.80;99.90;;;;;;5136407;27;20031;-73
2023/06/10 00:06:24;;;;;;;6.75;4.78;;;14.80;99.90;;;;;;5136455;27;20042;-73
2023/06/10 00:08:50;;;;;;;8.85;4.95;;;14.80;99.90;;;;;;5136440;27;20125;-73
2023/06/10 00:11:16;;;;;;;5.72;4.97;;;14.90;99.90;;;;;;5155501;27;20038;-73
2023/06/10 00:13:41;;;;;;;6.68;4.82;;;14.90;99.90;;;;;;5155174;27;20100;-73
2023/06/10 00:16:07;;;;;;;6.20;4.82;;;14.80;99.90;;;;;;5154415;27;20031;-73
2023/06/10 00:18:32;;;;;;;5.63;5.00;;;14.80;99.90;;;;;;5136177;27;20038;-73
2023/06/10 00:21:04;;;;;;;6.05;4.95;;;14.80;99.90;;;;;;5157639;27;20482;-73
2023/06/10 00:23:37;;;;;;;7.28;4.95;;;14.80;99.90;;;;;;5158617;27;20023;-73
2023/06/10 00:26:03;;;;;;;6.35;4.55;;;14.70;99.90;;;;;;5139999;27;20045;-73
2023/06/10 00:28:28;;;;;;;5.28;4.60;;;14.70;99.90;;;;;;5158518;27;20030;-73
2023/06/10 00:30:54;;;;;;;4.55;4.07;;;14.70;99.90;;;;;;5139876;27;20066;-73
2023/06/10 00:33:20;;;;;;;6.28;4.50;;;14.70;99.90;;;;;;5139877;27;20062;-73
2023/06/10 00:35:46;;;;;;;6.18;4.40;;;14.60;99.90;;;;;;5139988;27;20078;-73
2023/06/10 00:38:14;;;;;;;6.35;5.45;;;14.60;99.90;;;;;;5158179;27;20057;-73
2023/06/10 00:40:40;;;;;;;5.90;4.93;;;14.60;99.90;;;;;;5139380;27;20035;-73
2023/06/10 00:43:07;;;;;;;9.10;5.28;;;14.60;99.90;;;;;;5158227;27;20027;-73
2023/06/10 00:45:33;;;;;;;11.43;5.00;;;14.70;99.90;;;;;;5158141;27;20062;-73
2023/06/10 00:47:59;;;;;;;5.68;4.55;;;14.70;99.90;;;;;;5158100;27;20057;-73
2023/06/10 00:50:25;;;;;;;7.43;5.10;;;14.80;99.90;;;;;;5158662;27;20080;-73
2023/06/10 00:52:52;;;;;;;7.95;4.90;;;14.80;99.90;;;;;;5158299;27;20031;-73
2023/06/10 00:55:17;;;;;;;7.72;5.07;;;14.90;99.90;;;;;;5139371;27;20027;-73
2023/06/10 00:57:46;;;;;;;6.95;4.72;;;14.90;99.90;;;;;;5157961;27;20030;-73
2023/06/10 01:00:13;;;;;;;4.95;4.45;;;14.90;99.90;;;;;;5139704;27;20425;-73
2023/06/10 01:02:38;;;;;;;8.40;4.82;;;14.90;99.90;;;;;;5139473;27;20086;-73
2023/06/10 01:05:05;;;;;;;7.55;4.65;;;15.00;99.90;;;;;;5157806;27;20113;-73
2023/06/10 01:07:37;;;;;;;6.50;4.93;;;15.00;99.90;;;;;;5139443;27;20539;-73
2023/06/10 01:10:09;;;;;;;7.75;4.70;;;15.10;99.90;;;;;;5139143;27;20164;-73
2023/06/10 01:12:54;;;;;;;6.82;4.03;;;15.10;99.90;;;;;;5157956;27;20026;-73
2023/06/10 01:15:22;;;;;;;6.25;4.75;;;15.10;99.90;;;;;;5157592;27;20027;-73
2023/06/10 01:17:59;;;;;;;5.18;4.68;;;15.10;99.90;;;;;;5139233;27;20376;-73
2023/06/10 01:20:29;;;;;;;6.55;4.72;;;15.20;99.90;;;;;;5138492;27;20047;-73
2023/06/10 01:22:57;;;;;;;10.38;4.22;;;15.20;99.90;;;;;;5157499;27;20167;-73
2023/06/10 01:25:27;;;;;;;6.70;4.70;;;15.20;99.90;;;;;;5138899;27;20038;-73
2023/06/10 01:28:07;;;;;;;6.40;4.45;;;15.20;99.90;;;;;;5157369;27;20533;-73
2023/06/10 01:30:43;;;;;;;6.25;4.47;;;15.30;99.90;;;;;;5157619;27;20375;-73
2023/06/10 01:33:10;;;;;;;5.07;4.28;;;15.30;99.90;;;;;;5138331;27;20058;-73
2023/06/10 01:35:39;;;;;;;9.32;4.28;;;15.30;99.90;;;;;;5157226;27;20053;-73
2023/06/10 01:38:06;;;;;;;5.80;3.73;;;15.30;99.90;;;;;;5157307;27;20038;-73
2023/06/10 01:40:32;;;;;;;5.45;4.57;;;15.30;99.90;;;;;;5157188;27;20023;-73
2023/06/10 01:42:58;;;;;;;5.47;4.00;;;15.30;99.90;;;;;;5138585;27;20039;-73
2023/06/10 01:45:24;;;;;;;4.13;3.72;;;15.40;99.90;;;;;;5138473;27;20035;-73
2023/06/10 01:47:49;;;;;;;5.53;4.32;;;15.40;99.90;;;;;;5157017;27;20407;-73
2023/06/10 01:50:16;;;;;;;4.53;4.13;;;15.40;99.90;;;;;;5156881;27;20352;-73
2023/06/10 01:52:42;;;;;;;5.80;3.72;;;15.40;99.90;;;;;;5156855;27;20084;-73
2023/06/10 01:55:07;;;;;;;6.18;4.05;;;15.40;99.90;;;;;;5156911;27;20039;-73
2023/06/10 01:57:33;;;;;;;7.18;4.50;;;15.40;99.90;;;;;;5156649;27;20085;-73
2023/06/10 01:59:59;;;;;;;5.88;4.05;;;15.40;99.90;;;;;;5156438;27;20490;-74
2023/06/10 02:02:25;;;;;;;4.72;3.80;;;15.40;99.90;;;;;;5156928;27;20038;-73
2023/06/10 02:04:50;;;;;;;8.00;4.82;;;15.40;99.90;;;;;;5138740;27;20077;-73
2023/06/10 02:07:16;;;;;;;4.20;3.80;;;15.40;99.90;;;;;;5156815;27;20041;-73
2023/06/10 02:09:41;;;;;;;4.68;4.20;;;15.40;99.90;;;;;;5156537;27;20031;-73
2023/06/10 02:12:07;;;;;;;4.63;3.92;;;15.40;99.90;;;;;;5137908;27;20026;-73
2023/06/10 02:14:33;;;;;;;9.93;4.68;;;15.40;99.90;;;;;;5156726;27;20468;-74
2023/06/10 02:17:00;;;;;;;5.07;4.22;;;15.40;99.90;;;;;;5156274;27;20041;-73
2023/06/10 02:19:27;;;;;;;5.38;4.43;;;15.40;99.90;;;;;;5137492;27;20068;-73
2023/06/10 02:21:53;;;;;;;6.80;4.53;;;15.30;99.90;;;;;;5156534;27;20076;-73
2023/06/10 02:24:18;;;;;;;5.15;3.88;;;15.30;99.90;;;;;;5156284;27;20384;-73
2023/06/10 02:26:45;;;;;;;6.47;4.55;;;15.40;99.90;;;;;;5137673;27;20034;-73
2023/06/10 02:29:10;;;;;;;5.78;4.22;;;15.40;99.90;;;;;;5156437;27;20479;-73
2023/06/10 02:31:37;;;;;;;5.80;4.07;;;15.40;99.90;;;;;;5137555;27;20034;-73
2023/06/10 02:34:03;;;;;;;4.53;4.13;;;15.40;99.90;;;;;;5156056;27;20103;-73
2023/06/10 02:36:29;;;;;;;4.57;4.18;;;15.40;99.90;;;;;;5137372;27;20471;-73
2023/06/10 02:38:55;;;;;;;5.32;4.32;;;15.40;99.90;;;;;;5137977;27;20085;-73
2023/06/10 02:41:21;;;;;;;4.57;4.03;;;15.40;99.90;;;;;;5156196;27;20102;-73
2023/06/10 02:43:47;;;;;;;7.47;3.97;;;15.40;99.90;;;;;;5155898;27;20030;-73
2023/06/10 02:46:13;;;;;;;5.57;4.15;;;15.30;99.90;;;;;;5155898;27;20049;-73
2023/06/10 02:48:46;;;;;;;6.57;4.53;;;15.30;99.90;;;;;;5156075;27;20030;-73
2023/06/10 02:51:12;;;;;;;5.93;4.35;;;15.20;99.90;;;;;;5155845;27;20035;-73
2023/06/10 02:53:37;;;;;;;4.82;4.43;;;15.20;99.90;;;;;;5155455;27;20400;-73
2023/06/10 02:56:03;;;;;;;5.60;4.95;;;15.20;99.90;;;;;;5155655;27;20042;-73
2023/06/10 02:58:29;;;;;;;6.53;4.43;;;15.10;99.90;;;;;;5155639;27;20038;-73
2023/06/10 03:00:55;;;;;;;6.43;4.47;;;15.10;99.90;;;;;;5155671;27;20027;-73
2023/06/10 03:03:22;;;;;;;5.72;4.47;;;15.10;99.90;;;;;;5155906;27;20096;-73
2023/06/10 03:05:48;;;;;;;6.82;4.38;;;15.10;99.90;;;;;;5136993;27;20387;-73
2023/06/10 03:08:14;;;;;;;5.55;4.60;;;15.10;99.90;;;;;;5155312;27;20450;-73
2023/06/10 03:10:40;;;;;;;5.53;4.57;;;15.10;99.90;;;;;;5155648;27;20035;-73
2023/06/10 03:13:05;;;;;;;6.18;4.70;;;15.10;99.90;;;;;;5155518;27;20419;-73
2023/06/10 03:15:32;;;;;;;7.80;5.40;;;15.20;99.90;;;;;;5136832;27;20034;-73
2023/06/10 03:18:02;;;;;;;5.78;5.00;;;15.20;99.90;;;;;;5137032;27;20034;-73
2023/06/10 03:20:28;;;;;;;9.98;4.78;;;15.20;99.90;;;;;;5155563;27;20043;-74
2023/06/10 03:22:54;;;;;;;7.95;5.00;;;15.30;99.90;;;;;;5155424;27;20127;-73
2023/06/10 03:25:20;;;;;;;5.80;4.40;;;15.30;99.90;;;;;;5136916;27;20058;-73
2023/06/10 03:27:46;;;;;;;5.32;4.50;;;15.40;99.90;;;;;;5136761;27;20034;-73
2023/06/10 03:30:13;;;;;;;4.95;4.40;;;15.40;99.90;;;;;;5155384;27;20043;-74
2023/06/10 03:32:40;;;;;;;7.57;4.85;;;15.40;99.90;;;;;;5136811;27;20368;-73
2023/06/10 03:35:07;;;;;;;5.80;4.53;;;15.50;99.90;;;;;;5155300;27;20054;-73
2023/06/10 03:37:32;;;;;;;6.20;4.88;;;15.50;99.90;;;;;;5155170;27;20042;-73
2023/06/10 03:39:58;;;;;;;10.70;4.40;;;15.60;99.90;;;;;;5154988;27;20034;-73
2023/06/10 03:42:24;;;;;;;8.15;5.00;;;15.60;99.90;;;;;;5155509;27;20038;-73
2023/06/10 03:44:49;;;;;;;6.75;4.82;;;15.60;99.90;;;;;;5154934;27;20031;-73
2023/06/10 03:47:15;;;;;;;11.85;5.57;;;15.70;99.90;;;;;;5155252;27;20038;-73
2023/06/10 03:49:41;;;;;;;6.70;5.45;;;15.80;99.90;;;;;;5155175;27;20459;-73
2023/06/10 03:52:07;;;;;;;7.85;5.72;;;15.80;99.90;;;;;;5155546;27;20029;-73
2023/06/10 03:54:34;;;;;;;6.20;4.70;;;15.80;99.90;;;;;;5155345;27;20030;-73
2023/06/10 03:57:00;;;;;;;8.65;4.75;;;15.90;99.90;;;;;;5158820;27;20046;-73
2023/06/10 03:59:26;;;;;;;7.03;4.70;;;16.00;99.90;;;;;;5159093;27;20049;-73
2023/06/10 04:01:51;;;;;;;4.80;4.32;;;16.00;99.90;;;;;;5159076;27;20030;-73
2023/06/10 04:04:17;;;;;;;6.30;4.90;;;16.00;99.90;;;;;;5159578;27;20352;-74
2023/06/10 04:06:44;;;;;;;6.30;5.25;;;16.10;99.90;;;;;;5140637;27;20043;-74
2023/06/10 04:09:10;;;;;;;5.63;4.70;;;16.10;99.90;;;;;;5158927;27;20107;-73
2023/06/10 04:11:36;;;;;;;10.18;6.18;;;16.10;99.90;;;;;;5141007;27;20172;-73
2023/06/10 04:14:01;;;;;;;5.53;5.03;;;16.20;99.90;;;;;;5140672;27;20416;-73
2023/06/10 04:16:27;;;;;;;5.40;4.85;;;16.20;99.90;;;;;;5140176;27;20111;-73
2023/06/10 04:18:53;;;;;;;7.70;5.07;;;16.20;99.90;;;;;;5140010;27;20408;-74
2023/06/10 04:21:19;;;;;;;7.07;5.60;;;16.20;99.90;;;;;;5158442;27;20037;-73
2023/06/10 04:23:44;;;;;;;6.53;4.68;;;16.30;99.90;;;;;;5158670;27;20051;-73
2023/06/10 04:26:12;;;;;;;5.95;5.15;;;16.30;99.90;;;;;;5139990;27;20117;-73
2023/06/10 04:28:38;;;;;;;5.88;4.60;;;16.40;99.90;;;;;;5139590;27;20030;-73
2023/06/10 04:31:04;;;;;;;8.02;5.00;;;16.50;99.90;;;;;;5158473;27;20027;-73
2023/06/10 04:33:30;;;;;;;9.32;5.28;;;16.50;99.90;;;;;;5158397;27;20084;-73
2023/06/10 04:35:56;;;;;;;9.98;6.22;;;16.50;99.90;;;;;;5158571;27;20042;-73
2023/06/10 04:38:21;;;;;;;5.45;4.95;;;16.60;99.90;;;;;;5158646;27;20033;-73
2023/06/10 04:40:47;;;;;;;10.63;5.50;;;16.70;99.90;;;;;;5158002;27;20027;-73
2023/06/10 04:43:13;;;;;;;8.00;5.75;;;16.80;99.90;;;;;;5158227;27;20487;-73
2023/06/10 04:45:39;;;;;;;9.80;6.00;;;16.80;99.90;;;;;;5139846;27;20065;-73
2023/06/10 04:48:05;;;;;;;9.25;6.38;;;16.90;99.90;;;;;;5139903;27;20042;-73
2023/06/10 04:50:32;;;;;;;8.93;6.32;;;16.90;99.90;;;;;;5139542;27;20387;-73
2023/06/10 04:52:58;;;;;;;9.52;6.90;;;17.00;99.90;;;;;;5139509;27;20035;-73
2023/06/10 04:55:25;;;;;;;9.95;6.75;;;17.00;99.90;;;;;;5139336;27;20464;-73
2023/06/10 04:57:51;;;;;;;11.00;6.63;;;17.00;99.90;;;;;;5158034;27;20471;-73
2023/06/10 05:00:17;;;;;;;9.07;6.93;;;16.90;99.90;;;;;;5158208;27;20033;-73
2023/06/10 05:02:43;;;;;;;10.05;8.10;;;16.90;99.90;;;;;;5158114;27;20035;-73
2023/06/10 05:05:08;;;;;;;11.60;8.88;;;16.90;99.90;;;;;;5157836;27;20031;-73
2023/06/10 05:07:34;;;;;;;12.15;9.55;;;16.90;99.90;;;;;;5156469;27;20429;-73
2023/06/10 05:10:00;;;;;;;17.67;10.85;;;16.90;99.90;;;;;;5157760;27;20033;-73
2023/06/10 05:12:26;;;;;;;14.60;10.43;;;16.90;99.90;;;;;;5157708;27;20378;-73
2023/06/10 05:14:51;;;;;;;14.15;10.77;;;17.00;99.90;;;;;;5157629;27;20027;-73
2023/06/10 05:17:17;;;;;;;10.90;9.50;;;17.00;99.90;;;;;;5139022;27;20042;-73
2023/06/10 05:19:44;;;;;;;11.88;10.07;;;17.20;99.90;;;;;;5157005;27;20507;-73
2023/06/10 05:22:09;;;;;;;12.30;9.00;;;17.30;99.90;;;;;;5157493;27;20102;-73
2023/06/10 05:24:35;;;;;;;12.77;9.90;;;17.40;99.90;;;;;;5157462;27;20495;-72
2023/06/10 05:27:00;;;;;;;12.35;10.20;;;17.50;99.90;;;;;;5138843;27;20034;-76
2023/06/10 05:29:26;;;;;;;12.20;10.15;;;17.50;99.90;;;;;;5138873;27;20072;-76
2023/06/10 05:31:52;;;;;;;11.40;10.00;;;17.50;99.90;;;;;;5157314;27;20042;-64
2023/06/10 05:34:18;;;;;;;17.58;11.80;;;17.50;99.90;;;;;;5157208;27;20027;-65
2023/06/10 05:36:43;;;;;;;13.80;10.68;;;17.50;99.90;;;;;;5157000;27;20495;-65
2023/06/10 05:39:10;;;;;;;16.88;13.25;;;17.50;99.90;;;;;;5157153;27;20027;-65
2023/06/10 05:41:35;;;;;;;16.42;13.32;;;17.50;99.90;;;;;;5157121;27;20037;-65
2023/06/10 05:44:01;;;;;;;23.30;15.25;;;17.40;99.90;;;;;;5157868;27;20101;-65
2023/06/10 05:46:27;;;;;;;18.05;12.95;;;17.40;99.90;;;;;;5157306;27;20523;-64
2023/06/10 05:48:53;;;;;;;21.00;15.10;;;17.40;99.90;;;;;;5156964;27;20084;-65
2023/06/10 05:51:18;;;;;;;23.50;15.57;;;17.30;99.90;;;;;;5156884;27;20026;-65
2023/06/10 05:53:46;;;;;;;20.40;15.15;;;17.30;99.90;;;;;;5156840;27;20433;-65
2023/06/10 05:56:12;;;;;;;21.55;15.32;;;17.30;99.90;;;;;;5156370;27;20034;-72
2023/06/10 05:58:38;;;;;;;34.15;16.05;;;17.30;99.90;;;;;;5156459;27;20459;-72
2023/06/10 06:01:04;;;;;;;20.20;14.65;;;17.30;99.90;;;;;;5138098;27;20038;-72
2023/06/10 06:03:29;;;;;;;21.95;15.25;;;17.30;99.90;;;;;;5156729;27;20034;-73
2023/06/10 06:05:55;;;;;;;19.98;15.15;;;17.40;99.90;;;;;;5138098;27;20383;-73
2023/06/10 06:08:20;;;;;;;18.05;14.25;;;17.40;99.90;;;;;;5156487;27;20058;-73
2023/06/10 06:10:47;;;;;;;18.33;14.10;;;17.40;99.90;;;;;;5156216;27;20105;-73
2023/06/10 06:13:13;;;;;;;19.83;13.60;;;17.40;99.90;;;;;;5156401;27;20034;-72
2023/06/10 06:15:39;;;;;;;20.85;14.77;;;17.40;99.90;;;;;;5156632;27;20035;-74
2023/06/10 06:18:04;;;;;;;20.63;14.52;;;17.40;99.90;;;;;;5155999;27;20037;-73
2023/06/10 06:20:30;;;;;;;23.67;15.90;;;17.40;99.90;;;;;;5156957;27;20046;-74
2023/06/10 06:22:56;;;;;;;23.08;16.30;;;17.40;99.90;;;;;;5156280;27;20361;-73
2023/06/10 06:25:21;;;;;;;22.42;15.63;;;17.40;99.90;;;;;;5138195;27;20031;-74
2023/06/10 06:27:47;;;;;;;25.40;16.75;;;17.40;99.90;;;;;;5156145;27;20062;-77
2023/06/10 06:30:13;;;;;;;21.67;15.45;;;17.50;99.90;;;;;;5156126;27;20031;-77
2023/06/10 06:32:38;;;;;;;23.00;16.02;;;17.60;99.90;;;;;;5156270;27;20038;-75
2023/06/10 06:35:07;;;;;;;22.30;15.90;;;17.60;99.90;;;;;;5155990;27;20031;-73
2023/06/10 06:37:33;;;;;;;;;;;17.60;99.90;;;;;;5156601;27;20121;-74
2023/06/10 06:39:59;;;;;;;25.23;16.40;;;17.60;99.90;;;;;;5156177;27;20355;-74
2023/06/10 06:42:25;;;;;;;23.65;16.27;;;17.60;99.90;;;;;;5137462;27;20487;-74
2023/06/10 06:44:50;;;;;;;21.85;16.15;;;17.70;99.90;;;;;;5156099;27;20023;-74
2023/06/10 06:47:19;;;;;;;25.08;17.38;;;17.70;99.90;;;;;;5155941;27;20035;-74
2023/06/10 06:49:46;;;;;;;27.13;18.65;;;17.70;99.90;;;;;;5155805;27;20468;-74
2023/06/10 06:52:12;;;;;;;28.80;19.35;;;17.60;99.90;;;;;;5155759;27;20110;-74
2023/06/10 06:54:37;;;;;;;29.52;19.30;;;17.60;99.90;;;;;;5137237;27;20117;-74
2023/06/10 06:57:03;;;;;;;27.70;17.50;;;17.50;99.90;;;;;;5137237;27;20045;-74
2023/06/10 06:59:29;;;;;;;29.58;18.58;;;17.60;99.90;;;;;;5155660;27;20461;-74
2023/06/10 07:01:54;;;;;;;30.60;18.50;;;17.60;99.90;;;;;;5155363;27;20035;-74
2023/06/10 07:04:21;;;;;;;29.45;19.67;;;17.60;99.90;;;;;;5155732;27;20118;-74
2023/06/10 07:06:48;;;;;;;28.00;18.58;;;17.60;99.90;;;;;;5136946;27;20467;-74
2023/06/10 07:09:13;;;;;;;29.27;19.48;;;17.70;99.90;;;;;;5155519;27;20531;-74
2023/06/10 07:11:39;;;;;;;30.60;18.67;;;17.80;99.90;;;;;;5155575;27;20113;-74
2023/06/10 07:14:05;;;;;;;28.55;18.83;;;17.90;99.90;;;;;;5155471;27;20026;-74
2023/06/10 07:16:30;;;;;;;30.02;19.05;;;18.00;99.90;;;;;;5155464;27;20464;-74
2023/06/10 07:18:56;;;;;;;25.95;18.80;;;18.10;99.90;;;;;;5155307;27;20065;-74
2023/06/10 07:21:23;;;;;;;30.05;19.17;;;18.10;99.90;;;;;;5155682;27;20023;-74
2023/06/10 07:23:48;;;;;;;24.88;18.35;;;18.20;99.90;;;;;;5155431;27;20027;-73
2023/06/10 07:26:14;;;;;;;25.30;17.95;;;18.20;99.90;;;;;;5155343;27;20503;-73
2023/06/10 07:28:43;;;;;;;25.08;17.77;;;18.20;99.90;;;;;;5136669;27;20038;-75
2023/06/10 07:31:09;;;;;;;28.85;17.67;;;18.40;99.90;;;;;;5158297;27;20035;-74
2023/06/10 07:33:35;;;;;;;25.88;17.20;;;18.50;99.90;;;;;;5159500;27;20037;-76
2023/06/10 07:36:00;;;;;;;27.73;18.67;;;18.60;99.90;;;;;;5160075;27;20039;-75
2023/06/10 07:38:26;;;;;;;27.42;17.67;;;18.60;99.90;;;;;;5159793;27;20044;-75
2023/06/10 07:40:52;;;;;;;25.42;18.27;;;18.60;99.90;;;;;;5140867;27;20035;-76
2023/06/10 07:43:18;;;;;;;26.58;17.92;;;18.60;99.90;;;;;;5159730;27;20035;-75
2023/06/10 07:45:44;;;;;;;26.08;18.85;;;18.50;99.90;;;;;;5159326;27;20035;-75
2023/06/10 07:48:10;;;;;;;27.58;18.90;;;18.50;99.90;;;;;;5159330;27;20379;-75
2023/06/10 07:50:36;;;;;;;24.63;18.23;;;18.50;99.90;;;;;;5140666;27;20031;-75
2023/06/10 07:53:01;;;;;;;26.85;19.25;;;18.50;99.90;;;;;;5159093;27;20447;-75
2023/06/10 07:55:27;;;;;;;28.40;18.38;;;18.50;99.90;;;;;;5159096;27;20479;-76
2023/06/10 07:57:53;;;;;;;27.95;19.17;;;18.60;99.90;;;;;;5140518;27;20035;-75
2023/06/10 08:00:20;;;;;;;89.95;27.20;;;18.70;99.90;;;;;;5158826;27;20042;-76
2023/06/10 08:02:46;;;;;;;28.98;18.52;;;18.80;99.90;;;;;;5158982;27;20035;-75
2023/06/10 08:05:12;;;;;;;24.15;18.35;;;18.90;99.90;;;;;;5158980;27;20054;-76
2023/06/10 08:07:38;;;;;;;26.27;18.38;;;19.00;99.90;;;;;;5159040;27;20490;-76
2023/06/10 08:10:05;;;;;;;23.83;18.10;;;19.00;99.90;;;;;;5140364;27;20428;-75
2023/06/10 08:12:31;;;;;;;26.55;17.40;;;19.00;99.90;;;;;;5158738;27;20086;-67
2023/06/10 08:14:57;;;;;;;24.42;16.95;;;19.00;99.90;;;;;;5159061;27;20038;-67
2023/06/10 08:17:23;;;;;;;24.83;18.45;;;19.00;99.90;;;;;;5158732;27;20030;-66
2023/06/10 08:19:49;;;;;;;27.58;17.70;;;19.10;99.90;;;;;;5158484;27;20372;-67
2023/06/10 08:22:15;;;;;;;23.00;16.63;;;19.30;99.90;;;;;;5158876;27;20027;-65
2023/06/10 08:24:40;;;;;;;22.30;15.82;;;19.40;99.90;;;;;;5158764;27;20030;-66
2023/06/10 08:27:06;;;;;;;21.33;15.77;;;19.60;99.90;;;;;;5158395;27;20514;-73
2023/06/10 08:29:32;;;;;;;19.88;15.32;;;19.70;99.90;;;;;;5158594;27;20035;-71
2023/06/10 08:31:58;;;;;;;18.23;15.20;;;20.00;99.90;;;;;;5158097;27;20034;-71
2023/06/10 08:34:24;;;;;;;22.70;15.07;;;20.20;99.90;;;;;;5158588;27;20494;-73
2023/06/10 08:36:53;;;;;;;16.23;13.98;;;20.30;99.90;;;;;;5139647;27;20523;-73
2023/06/10 08:39:19;;;;;;;18.90;13.95;;;20.50;99.90;;;;;;5139719;27;20038;-71
2023/06/10 08:41:58;;;;;;;19.92;13.82;;;20.60;99.90;;;;;;5157731;27;20391;-72
2023/06/10 08:44:29;;;;;;;15.45;13.10;;;20.60;99.90;;;;;;5158363;27;20073;-71
2023/06/10 08:46:58;;;;;;;21.00;13.52;;;20.60;99.90;;;;;;5158009;27;20066;-71
2023/06/10 08:49:30;;;;;;;18.73;15.13;;;20.60;99.90;;;;;;5139451;27;20057;-71
2023/06/10 08:51:58;;;;;;;20.02;14.00;;;20.40;99.90;;;;;;5158337;27;20460;-71
2023/06/10 08:54:29;;;;;;;16.70;13.77;;;20.30;99.90;;;;;;5158158;27;20379;-68
2023/06/10 08:56:57;;;;;;;17.17;13.65;;;20.40;99.90;;;;;;5158015;27;20047;-68
2023/06/10 08:59:25;;;;;;;20.52;14.13;;;20.40;99.90;;;;;;5157598;27;20387;-70
2023/06/10 09:01:51;;;;;;;17.17;14.45;;;20.60;99.90;;;;;;5157791;27;20031;-71
2023/06/10 09:04:18;;;;;;;18.48;13.65;;;20.60;99.90;;;;;;5139388;27;20031;-67
2023/06/10 09:06:44;;;;;;;19.10;13.82;;;20.80;99.90;;;;;;5139080;27;20356;-67
2023/06/10 09:09:11;;;;;;;14.82;13.15;;;20.90;99.90;;;;;;5157742;27;20037;-68
2023/06/10 09:11:43;;;;;;;17.88;13.63;;;21.00;99.90;;;;;;5157699;27;20031;-75
2023/06/10 09:14:09;;;;;;;16.70;13.27;;;20.90;99.90;;;;;;5139029;27;20533;-75
2023/06/10 09:16:35;;;;;;;19.02;13.52;;;20.90;99.90;;;;;;5157448;27;20034;-75
2023/06/10 09:19:07;;;;;;;14.55;12.85;;;21.00;99.90;;;;;;5157452;27;20047;-76
2023/06/10 09:21:33;;;;;;;16.38;12.63;;;21.00;99.90;;;;;;5157347;27;20026;-76
2023/06/10 09:23:59;;;;;;;17.52;12.88;;;20.90;99.90;;;;;;5157894;27;20039;-75
2023/06/10 09:26:28;;;;;;;20.02;13.48;;;20.80;99.90;;;;;;5157265;27;20031;-74
2023/06/10 09:29:03;;;;;;;14.07;12.18;;;20.90;99.90;;;;;;5138914;27;20034;-75
2023/06/10 09:31:29;;;;;;;14.88;11.77;;;21.00;99.90;;;;;;5138512;27;20038;-75
2023/06/10 09:34:05;;;;;;;13.85;11.43;;;21.10;99.90;;;;;;5156879;27;20026;-75
2023/06/10 09:36:32;;;;;;;13.20;11.80;;;21.10;99.90;;;;;;5138466;27;20035;-75
2023/06/10 09:38:57;;;;;;;15.98;12.55;;;21.00;99.90;;;;;;5157105;27;20441;-75
2023/06/10 09:41:32;;;;;;;17.83;12.45;;;20.80;99.90;;;;;;5157255;27;20076;-74
2023/06/10 09:43:58;;;;;;;14.18;11.65;;;20.70;99.90;;;;;;5138789;27;20039;-76
2023/06/10 09:46:24;;;;;;;15.02;11.98;;;20.70;99.90;;;;;;5157016;27;20383;-75
2023/06/10 09:48:49;;;;;;;16.63;11.45;;;20.70;99.90;;;;;;5156961;27;20026;-76
2023/06/10 09:51:18;;;;;;;15.40;11.18;;;20.70;99.90;;;;;;5156747;27;20033;-76
2023/06/10 09:53:51;;;;;;;12.93;11.63;;;20.70;99.90;;;;;;5155840;27;20041;-75
2023/06/10 09:56:17;;;;;;;13.45;11.35;;;20.80;99.90;;;;;;5156658;27;20141;-75
2023/06/10 09:58:45;;;;;;;11.70;10.60;;;21.10;99.90;;;;;;5138052;27;20031;-76
2023/06/10 10:01:14;;;;;;;11.52;10.32;;;21.50;99.90;;;;;;5156683;27;20064;-75
2023/06/10 10:03:47;;;;;;;12.25;10.98;;;22.00;99.90;;;;;;5156655;27;20062;-75
2023/06/10 10:06:16;;;;;;;12.48;10.85;;;22.30;99.90;;;;;;5156525;27;20432;-75
2023/06/10 10:08:43;;;;;;;12.02;10.73;;;22.30;99.90;;;;;;5137936;27;20130;-75
2023/06/10 10:11:09;;;;;;;14.35;11.68;;;22.20;99.90;;;;;;5156364;27;20030;-75
2023/06/10 10:13:35;;;;;;;14.48;11.63;;;22.10;99.90;;;;;;5156116;27;20113;-75
2023/06/10 10:16:15;;;;;;;13.13;11.57;;;21.90;99.90;;;;;;5137768;27;20121;-75
2023/06/10 10:18:45;;;;;;;13.38;11.98;;;21.70;99.90;;;;;;5137550;27;20027;-76
2023/06/10 10:21:16;;;;;;;12.95;10.73;;;21.40;99.90;;;;;;5156015;27;20096;-76
2023/06/10 10:24:26;;;;;;;12.40;10.65;;;21.50;99.90;;;;;;5156508;27;20030;-75
2023/06/10 10:26:58;;;;;;;17.48;10.95;;;21.60;99.90;;;;;;5051899;28;20036;-75
2023/06/10 10:29:27;;;;;;;13.73;11.32;;;21.80;99.90;;;;;;5052397;28;20048;-75
2023/06/10 10:31:57;;;;;;;13.63;10.73;;;21.90;99.90;;;;;;5052179;28;20040;-75
2023/06/10 10:34:43;;;;;;;13.02;11.45;;;22.00;99.90;;;;;;5051694;28;20506;-75
2023/06/10 10:37:09;;;;;;;12.77;11.25;;;22.10;99.90;;;;;;5051741;28;20045;-75
2023/06/10 10:39:36;;;;;;;12.48;11.05;;;22.30;99.90;;;;;;5051680;28;20086;-75
2023/06/10 10:42:04;;;;;;;12.52;11.20;;;22.30;99.90;;;;;;5051702;28;20053;-75
2023/06/10 10:44:31;;;;;;;12.73;11.07;;;22.40;99.90;;;;;;5051665;28;20552;-75
2023/06/10 10:47:02;;;;;;;13.02;11.30;;;22.30;99.90;;;;;;5051625;28;20037;-76
2023/06/10 10:49:28;;;;;;;12.65;10.88;;;22.40;99.90;;;;;;5052388;28;20118;-75
2023/06/10 10:51:57;;;;;;;13.18;11.10;;;22.30;99.90;;;;;;5051562;28;20557;-75
2023/06/10 10:54:37;;;;;;;13.40;11.43;;;22.20;99.90;;;;;;5051352;28;20029;-76
2023/06/10 10:57:14;;;;;;;16.33;11.05;;;22.00;99.90;;;;;;5067326;27;20402;-76
2023/06/10 11:00:00;;;;;;;12.73;10.95;;;21.90;99.90;;;;;;5155668;27;20031;-76
2023/06/10 11:02:37;;;;;;;12.10;10.25;;;22.10;99.90;;;;;;5156066;27;20095;-76
2023/06/10 11:05:03;;;;;;;15.48;10.63;;;22.30;99.90;;;;;;5155557;27;20460;-76
2023/06/10 11:07:30;;;;;;;13.00;9.93;;;22.60;99.90;;;;;;5136961;27;20134;-75
2023/06/10 11:10:09;;;;;;;11.43;9.98;;;23.30;99.90;;;;;;5155224;27;20023;-73
2023/06/10 11:12:45;;;;;;;10.95;9.38;;;24.20;99.90;;;;;;5132473;27;20107;-75
2023/06/10 11:15:17;;;;;;;10.57;9.57;;;25.00;99.90;;;;;;5114254;28;20027;-75
2023/06/10 11:18:10;;;;;;;10.73;9.50;;;25.00;99.90;;;;;;5096017;28;20204;-76
2023/06/10 11:20:48;;;;;;;11.45;10.15;;;24.90;99.90;;;;;;5084492;28;20146;-73
2023/06/10 11:23:29;;;;;;;11.50;10.30;;;24.60;99.90;;;;;;5093780;28;20370;-73
2023/06/10 11:26:26;;;;;;;11.20;9.35;;;24.20;99.90;;;;;;5092337;28;20064;-75
2023/06/10 11:28:55;;;;;;;11.38;10.00;;;23.90;99.90;;;;;;5092831;28;20086;-75
2023/06/10 11:31:24;;;;;;;10.55;9.30;;;23.70;99.90;;;;;;5092329;28;20548;-75
2023/06/10 11:33:53;;;;;;;11.50;9.68;;;23.60;99.90;;;;;;5093562;28;20032;-76
2023/06/10 11:36:19;;;;;;;12.82;9.27;;;23.60;99.90;;;;;;5093504;28;20500;-75
2023/06/10 11:38:45;;;;;;;12.65;9.70;;;23.40;99.90;;;;;;5092485;28;20119;-75
2023/06/10 11:41:14;;;;;;;11.95;9.05;;;23.40;99.90;;;;;;5093436;28;20032;-72
2023/06/10 11:43:46;;;;;;;11.63;9.38;;;23.70;99.90;;;;;;5093435;28;20063;-73
2023/06/10 11:46:13;;;;;;;10.57;9.48;;;23.90;99.90;;;;;;5093515;28;20032;-73
2023/06/10 11:48:38;;;;;;;10.25;9.10;;;24.10;99.90;;;;;;5093309;28;20028;-73
2023/06/10 11:51:07;;;;;;;11.48;9.43;;;24.10;99.90;;;;;;5092967;28;20051;-60
2023/06/10 11:53:33;;;;;;;10.25;9.20;;;24.10;99.90;;;;;;5093387;28;20064;-61
2023/06/10 11:55:59;;;;;;;9.82;8.88;;;24.10;99.90;;;;;;5093284;28;20482;-60
2023/06/10 11:58:25;;;;;;;10.75;8.80;;;24.20;99.90;;;;;;5093419;28;20032;-62
2023/06/10 12:00:58;;;;;;;9.77;8.10;;;25.20;99.90;;;;;;5093693;28;20040;-63
2023/06/10 12:03:25;;;;;;;10.55;8.55;;;26.10;99.90;;;;;;5093627;28;20119;-63
2023/06/10 12:06:02;;;;;;;9.40;8.35;;;26.40;98.90;;;;;;5092339;28;20047;-62
2023/06/10 12:08:29;;;;;;;9.02;8.20;;;26.10;99.00;;;;;;5092825;28;20032;-63
2023/06/10 12:10:56;;;;;;;9.52;8.10;;;26.60;99.30;;;;;;5093218;28;20043;-63
2023/06/10 12:13:23;;;;;;;9.77;8.75;;;27.30;97.20;;;;;;5091858;28;20121;-62
2023/06/10 12:15:49;;;;;;;9.45;8.43;;;27.70;95.90;;;;;;5093469;28;20039;-62
2023/06/10 12:18:18;;;;;;;11.13;7.43;;;27.80;94.90;;;;;;5096723;28;20028;-62
2023/06/10 12:20:44;;;;;;;8.30;7.50;;;28.10;94.40;;;;;;5116904;28;20142;-62
2023/06/10 12:23:11;;;;;;;8.35;7.28;;;28.20;92.50;;;;;;5116955;28;20473;-62
2023/06/10 12:25:38;;;;;;;8.60;7.13;;;27.70;93.40;;;;;;5117208;28;20035;-62
2023/06/10 12:28:04;;;;;;;12.43;7.03;;;27.20;93.90;;;;;;5117132;28;20036;-62
2023/06/10 12:30:31;;;;;;;7.07;6.50;;;27.10;93.90;;;;;;5117106;28;20396;-62
2023/06/10 12:32:57;;;;;;;8.38;6.90;;;27.90;92.10;;;;;;5116827;28;20393;-62
2023/06/10 12:35:24;;;;;;;7.43;6.60;;;28.10;91.70;;;;;;5117213;28;20032;-63
2023/06/10 12:38:04;;;;;;;7.15;6.28;;;28.70;90.80;;;;;;5116648;28;20544;-63